Time;durP1;ratioP1;P1;durP2;ratioP2;P2;SDS_P1;SDS_P2;PMS_P1;PMS_P2;Temp;Humidity;BMP_temperature;BMP_pressure;BME280_temperature;BME280_humidity;BME280_pressure;Samples;Min_cycle;Max_cycle;Signal;HPM_P1;HPM_P2
2023/12/17 00:01:51;;;;;;;17.02;8.77;;;;;;;;;;4998797;28;20041;-71
2023/12/17 00:04:17;;;;;;;14.02;8.07;;;;;;;;;;5017497;28;20022;-65
2023/12/17 00:06:42;;;;;;;16.05;8.55;;;;;;;;;;5017825;28;20148;-70
2023/12/17 00:09:08;;;;;;;13.63;8.38;;;;;;;;;;4999996;28;20036;-70
2023/12/17 00:11:40;;;;;;;15.40;7.20;;;;;;;;;;5017578;28;20487;-71
2023/12/17 00:14:06;;;;;;;16.95;7.85;;;;;;;;;;5017505;28;20034;-72
2023/12/17 00:16:31;;;;;;;14.18;7.72;;;;;;;;;;5017042;28;20092;-72
2023/12/17 00:18:57;;;;;;;17.25;8.55;;;;;;;;;;4999119;28;20065;-71
2023/12/17 00:21:22;;;;;;;14.02;7.15;;;;;;;;;;4983152;28;20487;-71
2023/12/17 00:23:48;;;;;;;13.15;7.13;;;;;;;;;;5016968;28;20033;-72
2023/12/17 00:26:13;;;;;;;17.38;7.93;;;;;;;;;;5016831;28;20030;-70
2023/12/17 00:28:38;;;;;;;12.85;6.05;;;;;;;;;;5017365;28;20060;-72
2023/12/17 00:31:04;;;;;;;14.25;7.50;;;;;;;;;;4999449;28;20084;-72
2023/12/17 00:33:29;;;;;;;14.13;7.07;;;;;;;;;;5016325;28;20436;-71
2023/12/17 00:35:55;;;;;;;10.43;6.53;;;;;;;;;;5017122;28;20029;-71
2023/12/17 00:38:20;;;;;;;17.75;7.15;;;;;;;;;;5016642;28;20095;-71
2023/12/17 00:40:46;;;;;;;12.60;6.68;;;;;;;;;;5016459;28;20037;-71
2023/12/17 00:43:11;;;;;;;13.45;7.03;;;;;;;;;;5017042;28;20030;-68
2023/12/17 00:45:37;;;;;;;14.30;7.18;;;;;;;;;;4999071;28;20490;-69
2023/12/17 00:48:02;;;;;;;9.98;6.28;;;;;;;;;;5016119;28;20030;-69
2023/12/17 00:50:28;;;;;;;9.27;5.97;;;;;;;;;;4998462;28;20026;-71
2023/12/17 00:52:53;;;;;;;11.82;6.28;;;;;;;;;;4998900;28;20445;-71
2023/12/17 00:55:18;;;;;;;11.32;6.68;;;;;;;;;;5016241;28;20026;-63
2023/12/17 00:57:43;;;;;;;11.43;5.90;;;;;;;;;;5016312;28;20045;-64
2023/12/17 01:00:09;;;;;;;10.63;6.35;;;;;;;;;;5016078;28;20034;-64
2023/12/17 01:02:35;;;;;;;10.25;5.68;;;;;;;;;;5016120;28;20033;-65
2023/12/17 01:05:00;;;;;;;10.20;5.97;;;;;;;;;;5016485;28;20518;-66
2023/12/17 01:07:26;;;;;;;11.88;6.13;;;;;;;;;;5015895;28;20463;-65
2023/12/17 01:09:51;;;;;;;9.20;5.88;;;;;;;;;;5016364;28;20038;-64
2023/12/17 01:12:16;;;;;;;9.80;6.00;;;;;;;;;;5016013;28;20030;-64
2023/12/17 01:14:42;;;;;;;8.57;4.95;;;;;;;;;;5015801;28;20052;-65
2023/12/17 01:17:07;;;;;;;10.30;5.68;;;;;;;;;;5015635;28;20029;-65
2023/12/17 01:19:34;;;;;;;10.32;6.10;;;;;;;;;;5015946;28;20033;-64
2023/12/17 01:22:00;;;;;;;8.80;5.70;;;;;;;;;;5015744;28;20030;-65
2023/12/17 01:24:25;;;;;;;8.25;5.30;;;;;;;;;;4981953;28;20036;-64
2023/12/17 01:26:50;;;;;;;10.88;5.80;;;;;;;;;;4997987;28;20041;-65
2023/12/17 01:29:16;;;;;;;11.55;5.78;;;;;;;;;;5026513;23;20112;-64
2023/12/17 01:31:41;;;;;;;8.30;4.20;;;;;;;;;;5025579;23;20493;-69
2023/12/17 01:34:07;;;;;;;10.32;6.15;;;;;;;;;;5015179;28;20029;-64
2023/12/17 01:36:33;;;;;;;10.18;6.15;;;;;;;;;;4997777;28;20030;-64
2023/12/17 01:38:58;;;;;;;12.70;6.10;;;;;;;;;;4997976;28;20546;-65
2023/12/17 01:41:25;;;;;;;10.77;5.65;;;;;;;;;;5015698;28;20030;-64
2023/12/17 01:43:50;;;;;;;9.68;5.25;;;;;;;;;;5015392;28;20026;-64
2023/12/17 01:46:15;;;;;;;8.55;5.78;;;;;;;;;;5015135;28;20026;-64
2023/12/17 01:48:41;;;;;;;12.05;5.30;;;;;;;;;;5015198;28;20026;-63
2023/12/17 01:51:08;;;;;;;7.18;4.80;;;;;;;;;;5015204;28;20042;-64
2023/12/17 01:53:33;;;;;;;8.18;4.65;;;;;;;;;;5015285;28;20034;-64
2023/12/17 01:55:59;;;;;;;8.25;5.93;;;;;;;;;;5015034;28;20040;-64
2023/12/17 01:58:24;;;;;;;9.40;5.43;;;;;;;;;;5015341;28;20034;-64
2023/12/17 02:00:50;;;;;;;9.23;5.63;;;;;;;;;;5014909;28;20112;-64
2023/12/17 02:03:15;;;;;;;10.60;5.78;;;;;;;;;;5014981;28;20196;-64
2023/12/17 02:05:44;;;;;;;8.98;5.10;;;;;;;;;;5015105;28;20109;-63
2023/12/17 02:08:09;;;;;;;8.43;5.07;;;;;;;;;;4997155;28;20105;-63
2023/12/17 02:10:35;;;;;;;9.00;5.68;;;;;;;;;;5014594;28;20125;-65
2023/12/17 02:13:01;;;;;;;7.18;4.78;;;;;;;;;;5015274;28;20487;-64
2023/12/17 02:15:26;;;;;;;9.55;5.47;;;;;;;;;;5014720;28;20018;-69
2023/12/17 02:17:51;;;;;;;8.30;5.63;;;;;;;;;;5015236;28;20116;-70
2023/12/17 02:20:17;;;;;;;10.32;5.55;;;;;;;;;;5014792;28;20129;-70
2023/12/17 02:22:43;;;;;;;10.13;5.63;;;;;;;;;;5014506;28;20077;-70
2023/12/17 02:25:09;;;;;;;7.68;5.20;;;;;;;;;;5025755;23;20065;-65
2023/12/17 02:27:34;;;;;;;7.53;4.80;;;;;;;;;;5014535;28;20361;-64
2023/12/17 02:30:00;;;;;;;7.32;4.85;;;;;;;;;;4997324;28;20404;-64
2023/12/17 02:32:25;;;;;;;7.85;4.85;;;;;;;;;;5014433;28;20068;-64
2023/12/17 02:34:51;;;;;;;10.98;5.13;;;;;;;;;;5014498;28;20129;-64
2023/12/17 02:37:16;;;;;;;10.30;6.18;;;;;;;;;;5014722;28;20030;-64
2023/12/17 02:39:42;;;;;;;9.15;5.88;;;;;;;;;;5014397;28;20033;-65
2023/12/17 02:42:07;;;;;;;8.85;5.57;;;;;;;;;;4996594;28;20022;-65
2023/12/17 02:44:32;;;;;;;9.20;5.22;;;;;;;;;;5014304;28;20026;-64
2023/12/17 02:46:58;;;;;;;7.45;4.97;;;;;;;;;;5014272;28;20468;-65
2023/12/17 02:49:27;;;;;;;9.75;5.95;;;;;;;;;;5014504;28;20051;-66
2023/12/17 02:51:53;;;;;;;6.97;5.25;;;;;;;;;;4999396;28;20034;-65
2023/12/17 02:54:19;;;;;;;7.72;5.20;;;;;;;;;;5016020;28;20421;-65
2023/12/17 02:56:44;;;;;;;8.82;5.60;;;;;;;;;;5014508;28;20337;-64
2023/12/17 02:59:10;;;;;;;8.77;5.03;;;;;;;;;;5014188;28;20033;-65
2023/12/17 03:01:36;;;;;;;9.07;5.50;;;;;;;;;;5013116;28;20026;-65
2023/12/17 03:04:04;;;;;;;7.18;4.88;;;;;;;;;;5014380;28;20494;-64
2023/12/17 03:06:29;;;;;;;7.65;5.28;;;;;;;;;;4996493;28;20073;-64
2023/12/17 03:08:55;;;;;;;8.70;5.15;;;;;;;;;;5014199;28;20026;-64
2023/12/17 03:11:21;;;;;;;7.40;4.95;;;;;;;;;;5014647;28;20048;-65
2023/12/17 03:13:46;;;;;;;8.25;5.43;;;;;;;;;;5013929;28;20124;-64
2023/12/17 03:16:11;;;;;;;5.78;4.15;;;;;;;;;;4996515;28;20110;-64
2023/12/17 03:18:37;;;;;;;7.55;4.72;;;;;;;;;;5013992;28;20057;-64
2023/12/17 03:21:03;;;;;;;6.38;2.92;;;;;;;;;;4996470;28;20034;-64
2023/12/17 03:23:29;;;;;;;6.72;4.60;;;;;;;;;;5013763;28;20507;-63
2023/12/17 03:25:54;;;;;;;8.15;5.53;;;;;;;;;;5014093;28;20117;-63
2023/12/17 03:28:19;;;;;;;6.80;4.70;;;;;;;;;;5013703;28;20030;-64
2023/12/17 03:30:45;;;;;;;6.18;5.03;;;;;;;;;;5013823;28;20141;-63
2023/12/17 03:33:10;;;;;;;7.18;4.60;;;;;;;;;;5014061;28;20491;-63
2023/12/17 03:35:36;;;;;;;7.13;5.15;;;;;;;;;;5014938;28;20035;-63
2023/12/17 03:38:01;;;;;;;7.90;5.03;;;;;;;;;;5016308;28;20053;-64
2023/12/17 03:40:26;;;;;;;6.72;4.97;;;;;;;;;;4983591;28;20424;-63
2023/12/17 03:42:52;;;;;;;7.55;5.63;;;;;;;;;;5017414;28;20030;-64
2023/12/17 03:45:17;;;;;;;8.40;5.93;;;;;;;;;;5017777;28;20017;-63
2023/12/17 03:47:47;;;;;;;9.30;5.53;;;;;;;;;;5017325;28;20429;-63
2023/12/17 03:50:13;;;;;;;9.82;5.70;;;;;;;;;;5016310;28;20030;-65
2023/12/17 03:52:38;;;;;;;11.10;6.05;;;;;;;;;;5017581;28;20034;-64
2023/12/17 03:55:03;;;;;;;9.35;5.57;;;;;;;;;;5017280;28;20030;-64
2023/12/17 03:57:29;;;;;;;9.90;6.03;;;;;;;;;;5017789;28;20464;-64
2023/12/17 03:59:54;;;;;;;7.32;5.30;;;;;;;;;;5017083;28;20030;-64
2023/12/17 04:02:19;;;;;;;8.90;5.10;;;;;;;;;;5017081;28;20018;-64
2023/12/17 04:04:45;;;;;;;11.35;5.45;;;;;;;;;;5016994;28;20029;-64
2023/12/17 04:07:10;;;;;;;7.88;6.10;;;;;;;;;;4983248;28;20076;-63
2023/12/17 04:09:36;;;;;;;10.10;5.97;;;;;;;;;;5016237;28;20030;-64
2023/12/17 04:12:02;;;;;;;8.27;5.75;;;;;;;;;;4999495;28;20117;-64
2023/12/17 04:14:27;;;;;;;6.35;4.80;;;;;;;;;;5016979;28;20034;-65
2023/12/17 04:16:53;;;;;;;7.22;5.50;;;;;;;;;;5016817;28;20049;-64
2023/12/17 04:19:18;;;;;;;7.82;5.28;;;;;;;;;;4999200;28;20033;-64
2023/12/17 04:21:43;;;;;;;6.75;4.75;;;;;;;;;;4999660;28;20034;-65
2023/12/17 04:24:09;;;;;;;8.52;5.32;;;;;;;;;;5016927;28;20117;-65
2023/12/17 04:26:34;;;;;;;10.65;5.97;;;;;;;;;;5016587;28;20092;-65
2023/12/17 04:29:00;;;;;;;8.27;5.38;;;;;;;;;;5016855;28;20033;-63
2023/12/17 04:31:25;;;;;;;10.48;6.07;;;;;;;;;;5017022;28;20042;-63
2023/12/17 04:33:55;;;;;;;7.97;4.90;;;;;;;;;;5022702;23;20038;-70
2023/12/17 04:36:20;;;;;;;8.80;5.67;;;;;;;;;;4994800;28;20073;-64
2023/12/17 04:38:47;;;;;;;8.40;5.65;;;;;;;;;;4979479;28;20347;-64
2023/12/17 04:41:14;;;;;;;9.43;5.65;;;;;;;;;;4997413;28;20034;-63
2023/12/17 04:43:39;;;;;;;7.45;4.80;;;;;;;;;;4997000;28;20109;-63
2023/12/17 04:48:41;;;;;;;9.20;5.35;;;;;;;;;;4935906;29;20043;-63
2023/12/17 04:51:06;;;;;;;8.00;5.60;;;;;;;;;;4938827;29;20490;-63
2023/12/17 04:53:32;;;;;;;7.82;5.50;;;;;;;;;;4938629;29;20039;-62
2023/12/17 04:55:57;;;;;;;9.25;6.25;;;;;;;;;;4937425;29;20565;-63
2023/12/17 04:58:23;;;;;;;9.68;5.70;;;;;;;;;;4938484;29;20486;-63
2023/12/17 05:00:48;;;;;;;8.85;6.28;;;;;;;;;;4938528;29;20094;-62
2023/12/17 05:03:14;;;;;;;8.45;5.70;;;;;;;;;;4938572;29;20027;-62
2023/12/17 05:05:39;;;;;;;9.32;5.50;;;;;;;;;;4938727;29;20078;-62
2023/12/17 05:08:05;;;;;;;9.55;6.00;;;;;;;;;;4938793;29;20019;-62
2023/12/17 05:10:31;;;;;;;8.15;5.28;;;;;;;;;;4953298;29;20472;-62
2023/12/17 05:12:56;;;;;;;8.05;5.65;;;;;;;;;;4938469;29;20110;-62
2023/12/17 05:15:22;;;;;;;10.50;5.50;;;;;;;;;;4938369;29;20036;-63
2023/12/17 05:17:47;;;;;;;7.35;5.38;;;;;;;;;;4938736;29;20032;-63
2023/12/17 05:20:13;;;;;;;7.25;5.32;;;;;;;;;;4937526;29;20063;-62
2023/12/17 05:22:38;;;;;;;7.70;5.90;;;;;;;;;;4938832;29;20036;-64
2023/12/17 05:25:03;;;;;;;8.85;5.38;;;;;;;;;;4938462;29;20091;-62
2023/12/17 05:27:29;;;;;;;8.95;6.07;;;;;;;;;;4920491;29;20091;-62
2023/12/17 05:29:54;;;;;;;8.15;5.05;;;;;;;;;;4938099;29;20036;-62
2023/12/17 05:32:20;;;;;;;8.45;5.38;;;;;;;;;;4937877;29;20087;-62
2023/12/17 05:34:45;;;;;;;7.47;5.53;;;;;;;;;;4938428;29;20036;-61
2023/12/17 05:37:10;;;;;;;9.63;6.38;;;;;;;;;;4938069;29;20032;-62
2023/12/17 05:39:36;;;;;;;8.70;5.32;;;;;;;;;;4936508;29;20374;-64
2023/12/17 05:42:01;;;;;;;7.75;5.18;;;;;;;;;;4937791;29;20367;-62
2023/12/17 05:44:28;;;;;;;5.95;4.97;;;;;;;;;;5011786;23;20156;-65
2023/12/17 05:46:53;;;;;;;10.20;5.38;;;;;;;;;;5012939;28;20050;-62
2023/12/17 05:49:19;;;;;;;7.35;5.63;;;;;;;;;;5015429;23;20061;-64
2023/12/17 05:51:45;;;;;;;7.93;5.57;;;;;;;;;;4995510;28;20038;-64
2023/12/17 05:54:11;;;;;;;7.75;5.78;;;;;;;;;;4995875;28;20030;-66
2023/12/17 05:56:40;;;;;;;8.05;5.57;;;;;;;;;;4995551;28;20175;-64
2023/12/17 05:59:06;;;;;;;10.73;5.97;;;;;;;;;;4994662;28;20508;-66
2023/12/17 06:01:31;;;;;;;8.18;6.40;;;;;;;;;;5009843;28;20030;-65
2023/12/17 06:03:56;;;;;;;6.95;5.30;;;;;;;;;;4993728;28;20112;-65
2023/12/17 06:06:22;;;;;;;11.65;7.32;;;;;;;;;;4995150;28;20076;-65
2023/12/17 06:08:48;;;;;;;10.48;6.63;;;;;;;;;;4994767;28;20440;-64
2023/12/17 06:11:16;;;;;;;7.95;6.18;;;;;;;;;;4994710;28;20038;-63
2023/12/17 06:13:41;;;;;;;10.68;7.45;;;;;;;;;;4994473;28;20056;-64
2023/12/17 06:16:07;;;;;;;12.57;7.32;;;;;;;;;;4994288;28;20468;-64
2023/12/17 06:18:32;;;;;;;10.57;7.00;;;;;;;;;;4994094;28;20081;-63
2023/12/17 06:21:00;;;;;;;12.60;6.95;;;;;;;;;;4994337;28;20531;-64
2023/12/17 06:23:25;;;;;;;9.48;6.13;;;;;;;;;;4994517;28;20481;-62
2023/12/17 06:25:51;;;;;;;7.90;5.38;;;;;;;;;;4994290;28;20050;-64
2023/12/17 06:28:16;;;;;;;8.40;6.15;;;;;;;;;;4993033;28;20022;-65
2023/12/17 06:30:42;;;;;;;9.60;5.93;;;;;;;;;;4993826;28;20037;-68
2023/12/17 06:33:07;;;;;;;8.55;6.28;;;;;;;;;;5008895;28;20019;-68
2023/12/17 06:35:32;;;;;;;10.30;6.85;;;;;;;;;;5008671;28;20148;-66
2023/12/17 06:37:57;;;;;;;9.10;5.75;;;;;;;;;;4993238;28;20161;-68
2023/12/17 06:40:24;;;;;;;9.55;5.55;;;;;;;;;;4993450;28;20046;-65
2023/12/17 06:42:49;;;;;;;9.77;5.25;;;;;;;;;;4993605;28;20464;-63
2023/12/17 06:45:15;;;;;;;6.80;4.47;;;;;;;;;;4993507;28;20019;-65
2023/12/17 06:47:41;;;;;;;7.32;4.68;;;;;;;;;;4993358;28;20048;-65
2023/12/17 06:50:07;;;;;;;12.15;6.35;;;;;;;;;;5003877;28;20096;-65
2023/12/17 06:52:32;;;;;;;10.30;5.95;;;;;;;;;;5012554;28;20550;-65
2023/12/17 06:54:58;;;;;;;8.82;4.80;;;;;;;;;;4995063;28;20038;-70
2023/12/17 06:57:24;;;;;;;7.72;5.55;;;;;;;;;;5012366;28;20092;-71
2023/12/17 06:59:49;;;;;;;6.90;4.18;;;;;;;;;;5012796;28;20038;-65
2023/12/17 07:02:15;;;;;;;6.65;5.03;;;;;;;;;;5013681;28;20010;-65
2023/12/17 07:04:40;;;;;;;7.88;5.55;;;;;;;;;;4995774;28;20535;-65
2023/12/17 07:07:09;;;;;;;9.95;5.82;;;;;;;;;;5022265;23;20102;-72
2023/12/17 07:09:34;;;;;;;10.45;5.72;;;;;;;;;;5011990;28;20550;-72
2023/12/17 07:12:00;;;;;;;10.10;5.75;;;;;;;;;;5013575;28;20034;-72
2023/12/17 07:14:26;;;;;;;8.32;5.15;;;;;;;;;;5012950;28;20061;-73
2023/12/17 07:16:51;;;;;;;9.02;5.82;;;;;;;;;;5012776;28;20133;-72
2023/12/17 07:19:17;;;;;;;6.82;4.50;;;;;;;;;;5012732;28;20460;-71
2023/12/17 07:21:42;;;;;;;8.25;5.97;;;;;;;;;;5012757;28;20084;-71
2023/12/17 07:24:07;;;;;;;8.48;5.55;;;;;;;;;;5012696;28;20076;-70
2023/12/17 07:26:33;;;;;;;4.05;3.20;;;;;;;;;;5012984;28;20472;-71
2023/12/17 07:28:58;;;;;;;8.20;5.78;;;;;;;;;;5012618;28;20536;-70
2023/12/17 07:31:23;;;;;;;8.15;5.50;;;;;;;;;;5012427;28;20483;-70
2023/12/17 07:33:49;;;;;;;9.68;5.57;;;;;;;;;;4995021;28;20044;-70
2023/12/17 07:36:14;;;;;;;9.93;6.10;;;;;;;;;;5012430;28;20030;-70
2023/12/17 07:38:39;;;;;;;6.85;5.70;;;;;;;;;;5012951;28;20392;-70
2023/12/17 07:41:05;;;;;;;11.43;6.13;;;;;;;;;;4995390;28;20392;-70
2023/12/17 07:43:31;;;;;;;8.80;5.88;;;;;;;;;;4994859;28;20026;-70
2023/12/17 07:45:57;;;;;;;7.50;5.40;;;;;;;;;;5012604;28;20033;-70
2023/12/17 07:48:22;;;;;;;7.93;5.68;;;;;;;;;;5012454;28;20026;-70
2023/12/17 07:50:47;;;;;;;7.68;6.00;;;;;;;;;;5012663;28;20033;-71
2023/12/17 07:53:13;;;;;;;11.05;6.32;;;;;;;;;;5012549;28;20092;-71
2023/12/17 07:55:38;;;;;;;8.27;5.72;;;;;;;;;;4994955;28;20555;-71
2023/12/17 07:58:04;;;;;;;9.95;5.85;;;;;;;;;;5012561;28;20518;-71
2023/12/17 08:00:29;;;;;;;9.02;5.80;;;;;;;;;;5012340;28;20121;-71
2023/12/17 08:02:54;;;;;;;10.20;5.70;;;;;;;;;;4994988;28;20061;-71
2023/12/17 08:05:20;;;;;;;7.65;6.25;;;;;;;;;;5012348;28;20033;-70
2023/12/17 08:07:45;;;;;;;7.53;4.65;;;;;;;;;;5012366;28;20046;-71
2023/12/17 08:10:10;;;;;;;8.15;5.47;;;;;;;;;;5012391;28;20038;-70
2023/12/17 08:12:36;;;;;;;8.73;5.57;;;;;;;;;;5012277;28;20061;-71
2023/12/17 08:15:02;;;;;;;7.20;4.95;;;;;;;;;;5012352;28;20034;-70
2023/12/17 08:17:27;;;;;;;11.85;6.00;;;;;;;;;;5010716;28;20034;-70
2023/12/17 08:19:53;;;;;;;7.18;5.22;;;;;;;;;;4994937;28;20046;-70
2023/12/17 08:22:19;;;;;;;7.38;5.43;;;;;;;;;;5013973;28;20429;-70
2023/12/17 08:24:44;;;;;;;7.72;5.38;;;;;;;;;;4997959;28;20033;-70
2023/12/17 08:27:09;;;;;;;7.38;5.72;;;;;;;;;;5015859;28;20413;-70
2023/12/17 08:29:35;;;;;;;7.30;5.47;;;;;;;;;;5015512;28;20057;-70
2023/12/17 08:32:00;;;;;;;7.78;5.68;;;;;;;;;;5015558;28;20024;-70
2023/12/17 08:34:29;;;;;;;7.90;5.28;;;;;;;;;;5015662;28;20038;-70
2023/12/17 08:36:54;;;;;;;10.65;6.43;;;;;;;;;;4997981;28;20034;-70
2023/12/17 08:39:23;;;;;;;6.85;5.57;;;;;;;;;;5015292;28;20076;-70
2023/12/17 08:41:49;;;;;;;7.40;5.20;;;;;;;;;;5015582;28;20033;-70
2023/12/17 08:44:17;;;;;;;8.48;5.10;;;;;;;;;;5015351;28;20026;-71
2023/12/17 08:46:42;;;;;;;8.73;5.85;;;;;;;;;;4998049;28;20030;-70
2023/12/17 08:49:08;;;;;;;10.80;5.88;;;;;;;;;;4994285;28;20041;-70
2023/12/17 08:51:34;;;;;;;6.35;5.68;;;;;;;;;;5010331;28;20082;-70
2023/12/17 08:53:59;;;;;;;10.70;5.88;;;;;;;;;;4997724;28;20468;-71
2023/12/17 08:56:25;;;;;;;7.68;5.57;;;;;;;;;;5014990;28;20036;-70
2023/12/17 08:58:50;;;;;;;10.05;6.75;;;;;;;;;;4995508;28;20065;-71
2023/12/17 09:01:17;;;;;;;8.07;5.72;;;;;;;;;;5011616;28;20026;-71
2023/12/17 09:03:42;;;;;;;8.40;5.43;;;;;;;;;;5011666;28;20369;-71
2023/12/17 09:06:08;;;;;;;7.57;6.10;;;;;;;;;;5011637;28;20099;-72
2023/12/17 09:08:33;;;;;;;8.65;5.97;;;;;;;;;;5012228;28;20041;-72
2023/12/17 09:10:58;;;;;;;10.48;7.10;;;;;;;;;;5013413;28;20033;-72
2023/12/17 09:13:24;;;;;;;10.85;6.45;;;;;;;;;;5012900;28;20543;-72
2023/12/17 09:15:49;;;;;;;7.85;5.88;;;;;;;;;;5012417;28;20026;-72
2023/12/17 09:18:15;;;;;;;9.05;6.10;;;;;;;;;;4995082;28;20034;-72
2023/12/17 09:20:40;;;;;;;12.32;6.38;;;;;;;;;;5012362;28;20037;-72
2023/12/17 09:23:05;;;;;;;8.55;6.15;;;;;;;;;;5012219;28;20022;-72
2023/12/17 09:25:31;;;;;;;9.68;6.55;;;;;;;;;;5012387;28;20038;-72
2023/12/17 09:27:56;;;;;;;7.82;5.22;;;;;;;;;;5012216;28;20036;-72
2023/12/17 09:30:22;;;;;;;9.50;6.82;;;;;;;;;;4994994;28;20476;-72
2023/12/17 09:32:48;;;;;;;11.27;6.68;;;;;;;;;;5011504;28;20073;-71
2023/12/17 09:35:14;;;;;;;10.45;7.72;;;;;;;;;;4993641;28;20065;-71
2023/12/17 09:37:39;;;;;;;10.60;6.85;;;;;;;;;;4993413;28;20038;-72
2023/12/17 09:40:05;;;;;;;12.95;9.27;;;;;;;;;;5011271;28;20038;-72
2023/12/17 09:42:31;;;;;;;10.65;7.88;;;;;;;;;;5011433;28;20026;-72
2023/12/17 09:44:56;;;;;;;13.07;8.35;;;;;;;;;;4993889;28;20030;-72
2023/12/17 09:47:22;;;;;;;11.25;7.90;;;;;;;;;;5011578;28;20496;-73
2023/12/17 09:49:48;;;;;;;13.25;8.43;;;;;;;;;;5013637;28;20034;-72
2023/12/17 09:52:16;;;;;;;17.73;9.43;;;;;;;;;;5013656;28;20472;-72
2023/12/17 09:54:42;;;;;;;11.23;7.90;;;;;;;;;;5013726;28;20040;-72
2023/12/17 09:57:07;;;;;;;14.18;7.72;;;;;;;;;;4996168;28;20097;-72
2023/12/17 09:59:33;;;;;;;12.77;7.55;;;;;;;;;;5010916;28;20591;-73
2023/12/17 10:01:58;;;;;;;11.02;6.22;;;;;;;;;;5010703;28;20088;-73
2023/12/17 10:04:24;;;;;;;11.65;7.40;;;;;;;;;;4993026;28;20054;-72
2023/12/17 10:06:49;;;;;;;11.73;8.25;;;;;;;;;;5009635;28;20034;-72
2023/12/17 10:09:15;;;;;;;12.38;8.23;;;;;;;;;;5010629;28;20046;-74
2023/12/17 10:11:40;;;;;;;11.02;7.93;;;;;;;;;;5011281;28;20401;-72
2023/12/17 10:14:19;;;;;;;9.63;7.60;;;;;;;;;;4995855;28;20087;-72
2023/12/17 10:16:44;;;;;;;11.40;7.95;;;;;;;;;;4995907;28;20543;-72
2023/12/17 10:19:10;;;;;;;9.85;7.57;;;;;;;;;;5013465;28;20126;-72
2023/12/17 10:21:35;;;;;;;10.30;7.55;;;;;;;;;;5013522;28;20059;-72
2023/12/17 10:24:01;;;;;;;11.80;7.30;;;;;;;;;;5013701;28;20017;-72
2023/12/17 10:26:26;;;;;;;12.73;7.70;;;;;;;;;;4996060;28;20072;-72
2023/12/17 10:28:51;;;;;;;10.55;7.45;;;;;;;;;;4979600;28;20045;-72
2023/12/17 10:31:18;;;;;;;11.38;7.95;;;;;;;;;;5013429;28;20029;-72
2023/12/17 10:33:56;;;;;;;11.50;6.60;;;;;;;;;;5013276;28;20030;-72
2023/12/17 10:36:22;;;;;;;11.32;8.00;;;;;;;;;;5013432;28;20045;-72
2023/12/17 10:38:48;;;;;;;10.25;7.65;;;;;;;;;;5013136;28;20026;-71
2023/12/17 10:41:14;;;;;;;12.20;8.10;;;;;;;;;;5012050;28;20113;-72
2023/12/17 10:43:40;;;;;;;9.38;6.85;;;;;;;;;;5013229;28;20495;-72
2023/12/17 10:46:07;;;;;;;7.20;6.15;;;;;;;;;;5013032;28;20050;-71
2023/12/17 10:48:34;;;;;;;11.45;8.10;;;;;;;;;;5013420;28;20037;-71
2023/12/17 10:50:59;;;;;;;13.07;7.88;;;;;;;;;;4979270;28;20109;-72
2023/12/17 10:53:25;;;;;;;11.80;8.18;;;;;;;;;;5011719;28;20096;-70
2023/12/17 10:55:51;;;;;;;11.10;7.32;;;;;;;;;;4995707;28;20167;-70
2023/12/17 10:58:19;;;;;;;12.60;8.48;;;;;;;;;;5012970;28;20036;-70
2023/12/17 11:00:45;;;;;;;14.00;8.15;;;;;;;;;;4995258;28;20457;-70
2023/12/17 11:03:16;;;;;;;10.90;8.65;;;;;;;;;;5006442;28;20795;-69
2023/12/17 11:05:55;;;;;;;10.88;7.75;;;;;;;;;;4992501;28;20038;-70
2023/12/17 11:08:25;;;;;;;12.50;8.48;;;;;;;;;;4991966;28;20453;-71
2023/12/17 11:10:50;;;;;;;12.60;8.65;;;;;;;;;;5009265;28;20030;-72
2023/12/17 11:13:19;;;;;;;12.07;9.27;;;;;;;;;;5009064;28;20423;-71
2023/12/17 11:15:45;;;;;;;11.68;8.35;;;;;;;;;;5009605;28;20034;-71
2023/12/17 11:18:10;;;;;;;12.27;7.45;;;;;;;;;;5009562;28;20073;-71
2023/12/17 11:20:42;;;;;;;13.82;8.50;;;;;;;;;;5009741;28;20479;-71
2023/12/17 11:23:07;;;;;;;10.88;7.25;;;;;;;;;;5009220;28;20030;-72
2023/12/17 11:25:34;;;;;;;9.88;6.68;;;;;;;;;;5009228;28;20025;-72
2023/12/17 11:27:59;;;;;;;9.90;6.65;;;;;;;;;;5009385;28;20026;-71
2023/12/17 11:30:25;;;;;;;11.25;7.35;;;;;;;;;;5009174;28;20049;-71
2023/12/17 11:32:51;;;;;;;12.90;7.65;;;;;;;;;;5009349;28;20042;-72
2023/12/17 11:35:17;;;;;;;10.80;6.90;;;;;;;;;;5008872;28;20084;-71
2023/12/17 11:37:43;;;;;;;9.90;6.35;;;;;;;;;;5009317;28;20041;-72
2023/12/17 11:40:09;;;;;;;10.10;6.20;;;;;;;;;;5009571;28;20100;-72
2023/12/17 11:42:40;;;;;;;10.25;6.68;;;;;;;;;;5009291;28;20113;-72
2023/12/17 11:45:05;;;;;;;10.07;6.03;;;;;;;;;;5009177;28;20085;-71
2023/12/17 11:47:31;;;;;;;7.95;5.63;;;;;;;;;;5009154;28;20025;-71
2023/12/17 11:50:00;;;;;;;9.82;5.05;;;;;;;;;;4990459;28;20484;-71
2023/12/17 11:52:27;;;;;;;5.82;4.50;;;;;;;;;;5007528;28;20041;-72
2023/12/17 11:54:59;;;;;;;4.88;3.70;;;;;;;;;;5005811;28;20044;-71
2023/12/17 11:57:25;;;;;;;6.03;4.72;;;;;;;;;;5009781;28;20030;-72
2023/12/17 11:59:51;;;;;;;4.60;4.10;;;;;;;;;;4977474;28;20464;-71
2023/12/17 12:02:18;;;;;;;9.75;4.95;;;;;;;;;;5011287;28;20550;-71
2023/12/17 12:04:44;;;;;;;5.30;4.30;;;;;;;;;;5011572;28;20026;-71
2023/12/17 12:07:11;;;;;;;5.05;4.15;;;;;;;;;;5011048;28;20030;-72
2023/12/17 12:09:36;;;;;;;7.78;5.35;;;;;;;;;;5012232;28;20044;-72
2023/12/17 12:12:02;;;;;;;5.85;4.40;;;;;;;;;;5012863;28;20034;-70
2023/12/17 12:14:27;;;;;;;5.65;4.20;;;;;;;;;;5012580;28;20044;-72
2023/12/17 12:16:54;;;;;;;6.40;4.57;;;;;;;;;;5012653;28;20494;-70
2023/12/17 12:19:21;;;;;;;6.60;4.57;;;;;;;;;;5012560;28;20050;-71
2023/12/17 12:21:50;;;;;;;6.93;4.68;;;;;;;;;;5012495;28;20040;-71
2023/12/17 12:24:19;;;;;;;5.95;5.10;;;;;;;;;;4994649;28;20101;-71
2023/12/17 12:26:44;;;;;;;6.20;5.25;;;;;;;;;;5012661;28;20057;-72
2023/12/17 12:29:10;;;;;;;8.02;5.32;;;;;;;;;;5013439;28;20080;-71
2023/12/17 12:31:36;;;;;;;8.77;5.05;;;;;;;;;;5013816;28;20038;-71
2023/12/17 12:34:04;;;;;;;8.00;5.03;;;;;;;;;;5013033;28;20025;-72
2023/12/17 12:36:45;;;;;;;6.32;5.00;;;;;;;;;;5012735;28;20060;-73
2023/12/17 12:39:10;;;;;;;6.88;4.65;;;;;;;;;;5010468;28;20415;-73
2023/12/17 12:41:41;;;;;;;5.57;4.90;;;;;;;;;;4994713;28;20357;-73
2023/12/17 12:44:07;;;;;;;6.97;5.40;;;;;;;;;;5010597;28;20092;-73
2023/12/17 12:46:32;;;;;;;7.78;5.65;;;;;;;;;;5012393;28;20034;-73
2023/12/17 12:48:58;;;;;;;5.60;4.95;;;;;;;;;;4994508;28;20491;-73
2023/12/17 12:51:24;;;;;;;5.93;4.80;;;;;;;;;;5011779;28;20038;-72
2023/12/17 12:53:50;;;;;;;6.90;4.78;;;;;;;;;;5011727;28;20045;-72
2023/12/17 12:56:16;;;;;;;8.13;4.88;;;;;;;;;;4994057;28;20037;-72
2023/12/17 12:58:42;;;;;;;8.07;5.35;;;;;;;;;;5011608;28;20043;-72
2023/12/17 13:01:07;;;;;;;6.13;5.10;;;;;;;;;;5012232;28;20051;-72
2023/12/17 13:03:34;;;;;;;7.93;5.53;;;;;;;;;;5011511;28;20376;-72
2023/12/17 13:05:59;;;;;;;8.23;5.32;;;;;;;;;;5011220;28;20022;-72
2023/12/17 13:08:25;;;;;;;8.27;5.68;;;;;;;;;;4993989;28;20959;-72
2023/12/17 13:10:52;;;;;;;8.77;5.45;;;;;;;;;;5011613;28;20056;-71
2023/12/17 13:13:18;;;;;;;7.82;5.47;;;;;;;;;;5011178;28;20018;-72
2023/12/17 13:15:43;;;;;;;8.35;6.18;;;;;;;;;;5009625;28;20041;-72
2023/12/17 13:18:09;;;;;;;10.05;6.97;;;;;;;;;;5011450;28;20038;-72
2023/12/17 13:20:34;;;;;;;7.93;6.22;;;;;;;;;;5011357;28;20046;-72
2023/12/17 13:22:59;;;;;;;8.68;6.68;;;;;;;;;;5011626;28;20041;-72
2023/12/17 13:25:27;;;;;;;10.07;6.97;;;;;;;;;;5011163;28;20133;-72
2023/12/17 13:27:52;;;;;;;9.93;7.47;;;;;;;;;;5010850;28;20044;-72
2023/12/17 13:30:18;;;;;;;9.80;7.38;;;;;;;;;;5009702;28;20034;-73
2023/12/17 13:32:43;;;;;;;10.90;6.70;;;;;;;;;;4993488;28;20324;-73
2023/12/17 13:35:09;;;;;;;10.30;7.82;;;;;;;;;;5010826;28;20029;-73
2023/12/17 13:37:37;;;;;;;13.23;8.30;;;;;;;;;;5011612;28;20376;-73
2023/12/17 13:40:02;;;;;;;12.40;8.50;;;;;;;;;;5010626;28;20682;-73
2023/12/17 13:42:28;;;;;;;13.20;8.77;;;;;;;;;;5011226;28;20117;-72
2023/12/17 13:44:54;;;;;;;16.45;9.68;;;;;;;;;;5010634;28;20057;-73
2023/12/17 13:47:19;;;;;;;18.85;9.95;;;;;;;;;;5011047;28;20029;-73
2023/12/17 13:49:45;;;;;;;17.58;9.57;;;;;;;;;;5011140;28;20025;-73
2023/12/17 13:52:11;;;;;;;17.98;10.23;;;;;;;;;;4993084;28;20018;-72
2023/12/17 13:54:36;;;;;;;15.63;10.50;;;;;;;;;;5008996;28;20373;-72
2023/12/17 13:57:04;;;;;;;19.45;12.02;;;;;;;;;;5010875;28;20036;-73
2023/12/17 13:59:30;;;;;;;15.48;10.68;;;;;;;;;;5010245;28;20484;-72
2023/12/17 14:01:55;;;;;;;17.42;12.02;;;;;;;;;;5010761;28;20045;-73
2023/12/17 14:04:20;;;;;;;19.48;12.85;;;;;;;;;;5008864;28;20523;-72
2023/12/17 14:06:47;;;;;;;16.13;11.23;;;;;;;;;;5010597;28;20439;-72
2023/12/17 14:09:13;;;;;;;19.27;12.43;;;;;;;;;;4992848;28;20858;-72
2023/12/17 14:11:40;;;;;;;15.90;10.07;;;;;;;;;;4993151;28;20034;-72
2023/12/17 14:14:05;;;;;;;15.30;8.75;;;;;;;;;;4992705;28;20099;-70
2023/12/17 14:16:31;;;;;;;19.00;10.60;;;;;;;;;;5009012;28;20419;-71
2023/12/17 14:18:56;;;;;;;12.20;8.05;;;;;;;;;;5009800;28;20049;-72
2023/12/17 14:21:22;;;;;;;9.48;6.63;;;;;;;;;;5010107;28;20064;-72
2023/12/17 14:23:51;;;;;;;12.93;8.25;;;;;;;;;;4976341;28;20022;-72
2023/12/17 14:26:19;;;;;;;9.45;7.00;;;;;;;;;;5010240;28;20037;-71
2023/12/17 14:28:44;;;;;;;13.38;7.53;;;;;;;;;;4992718;28;20026;-71
2023/12/17 14:31:10;;;;;;;10.98;7.10;;;;;;;;;;5010211;28;20404;-71
2023/12/17 14:33:35;;;;;;;10.00;6.97;;;;;;;;;;5009739;28;20382;-71